Time;durP1;ratioP1;P1;durP2;ratioP2;P2;SDS_P1;SDS_P2;PMS_P1;PMS_P2;Temp;Humidity;BMP_temperature;BMP_pressure;BME280_temperature;BME280_humidity;BME280_pressure;Samples;Min_cycle;Max_cycle;Signal;HPM_P1;HPM_P2
2023/10/22 00:00:12;;;;;;;45.67;10.02;;;;;;;23.35;51.84;100486.25;5111282;28;20026;-77
2023/10/22 00:02:38;;;;;;;37.60;11.57;;;;;;;23.20;51.87;100462.63;5111181;28;20027;-79
2023/10/22 00:05:04;;;;;;;40.35;12.93;;;;;;;23.30;51.98;100481.41;5111378;28;20023;-78
2023/10/22 00:07:31;;;;;;;32.20;10.45;;;;;;;23.24;52.13;100476.75;5111440;28;20110;-77
2023/10/22 00:09:56;;;;;;;26.20;10.40;;;;;;;23.27;51.88;100481.84;5111162;28;20024;-78
2023/10/22 00:12:22;;;;;;;35.97;11.48;;;;;;;23.23;52.08;100467.69;5111305;28;20081;-78
2023/10/22 00:14:47;;;;;;;32.80;11.80;;;;;;;23.28;51.82;100467.88;5110422;28;20209;-77
2023/10/22 00:17:13;;;;;;;25.70;11.20;;;;;;;23.24;51.79;100465.75;5111076;28;20028;-78
2023/10/22 00:19:38;;;;;;;29.33;10.43;;;;;;;23.30;51.65;100457.53;5110964;28;20035;-77
2023/10/22 00:22:04;;;;;;;31.17;10.75;;;;;;;23.32;51.56;100476.56;5111109;28;20031;-78
2023/10/22 00:24:31;;;;;;;38.83;11.45;;;;;;;23.33;51.72;100472.75;5110964;28;20032;-79
2023/10/22 00:26:57;;;;;;;31.58;11.85;;;;;;;23.32;51.35;100473.81;5110756;28;20399;-78
2023/10/22 00:29:23;;;;;;;44.88;10.85;;;;;;;23.30;51.21;100446.56;5110795;28;20498;-77
2023/10/22 00:31:48;;;;;;;29.83;9.23;;;;;;;23.38;50.93;100464.72;5110645;28;20024;-78
2023/10/22 00:34:14;;;;;;;30.63;10.32;;;;;;;23.43;50.84;100470.44;5111002;28;20023;-78
2023/10/22 00:36:41;;;;;;;30.42;9.98;;;;;;;23.43;50.71;100466.84;5110652;28;20028;-77
2023/10/22 00:39:06;;;;;;;33.00;9.98;;;;;;;23.43;50.58;100464.97;5110818;28;20044;-77
2023/10/22 00:41:32;;;;;;;25.17;9.32;;;;;;;23.45;50.65;100462.88;5110691;28;20023;-78
2023/10/22 00:43:57;;;;;;;23.17;9.85;;;;;;;23.43;50.73;100455.88;5110537;28;20436;-79
2023/10/22 00:46:25;;;;;;;30.40;10.48;;;;;;;23.47;50.43;100455.25;5110300;28;20031;-78
2023/10/22 00:48:52;;;;;;;25.77;10.20;;;;;;;23.47;50.46;100465.38;5110705;28;20165;-79
2023/10/22 00:51:17;;;;;;;28.67;9.15;;;;;;;23.48;50.36;100456.09;5110448;28;20030;-80
2023/10/22 00:53:45;;;;;;;24.40;9.90;;;;;;;23.38;50.32;100440.03;5110560;28;20027;-78
2023/10/22 00:56:12;;;;;;;26.02;9.73;;;;;;;23.47;50.33;100459.88;5110306;28;20030;-78
2023/10/22 00:58:37;;;;;;;27.00;9.70;;;;;;;23.45;50.36;100457.38;5110280;28;20024;-79
2023/10/22 01:01:07;;;;;;;28.25;9.35;;;;;;;23.46;50.19;100464.53;5110042;28;20498;-78
2023/10/22 01:03:33;;;;;;;31.67;11.05;;;;;;;23.47;50.18;100471.72;5110363;28;20036;-77
2023/10/22 01:05:58;;;;;;;36.83;9.40;;;;;;;23.44;50.39;100466.66;5110328;28;20069;-79
2023/10/22 01:08:24;;;;;;;34.97;11.02;;;;;;;23.44;50.17;100472.16;5110189;28;20108;-79
2023/10/22 01:10:50;;;;;;;29.27;10.18;;;;;;;23.46;50.00;100481.00;5110060;28;20023;-78
2023/10/22 01:13:15;;;;;;;24.60;9.77;;;;;;;23.46;50.17;100486.50;5110020;28;20024;-78
2023/10/22 01:15:41;;;;;;;34.30;9.30;;;;;;;23.45;49.90;100490.31;5109721;28;20043;-79
2023/10/22 01:18:07;;;;;;;25.40;9.18;;;;;;;23.48;49.70;100470.69;5110426;28;20402;-79
2023/10/22 01:20:33;;;;;;;33.78;9.48;;;;;;;23.50;49.45;100471.28;5110001;28;20069;-79
2023/10/22 01:22:59;;;;;;;34.60;11.13;;;;;;;23.33;49.92;100448.06;5109819;28;20428;-79
2023/10/22 01:25:25;;;;;;;31.90;9.82;;;;;;;23.45;49.96;100471.09;5110023;28;20027;-80
2023/10/22 01:27:50;;;;;;;28.88;9.90;;;;;;;23.14;49.79;100435.19;5112566;28;20019;-78
2023/10/22 01:30:16;;;;;;;26.23;9.68;;;;;;;23.47;49.74;100481.84;5114310;28;20033;-78
2023/10/22 01:32:41;;;;;;;27.98;9.52;;;;;;;23.45;49.92;100498.56;5114572;28;20065;-77
2023/10/22 01:35:08;;;;;;;35.70;10.23;;;;;;;23.42;49.85;100490.75;5114423;28;20027;-77
2023/10/22 01:37:36;;;;;;;34.45;9.25;;;;;;;23.41;49.81;100499.16;5114039;28;20024;-78
2023/10/22 01:40:03;;;;;;;30.00;10.40;;;;;;;23.43;49.71;100492.41;5113757;27;20042;-77
2023/10/22 01:42:29;;;;;;;39.30;10.38;;;;;;;23.25;49.89;100473.81;5114075;28;20033;-78
2023/10/22 01:44:55;;;;;;;36.00;11.90;;;;;;;23.37;50.17;100495.97;5114097;28;20035;-79
2023/10/22 01:47:20;;;;;;;37.15;10.20;;;;;;;23.36;50.09;100502.53;5113949;28;20102;-78
2023/10/22 01:49:46;;;;;;;31.92;10.00;;;;;;;23.17;50.36;100473.16;5114184;28;20035;-78
2023/10/22 01:52:11;;;;;;;35.33;11.10;;;;;;;23.31;50.30;100488.56;5114077;28;20023;-77
2023/10/22 01:54:39;;;;;;;26.20;10.43;;;;;;;23.32;50.41;100495.75;5113782;28;20020;-77
2023/10/22 01:57:04;;;;;;;26.17;10.32;;;;;;;23.27;50.17;100493.63;5113692;28;20069;-77
2023/10/22 01:59:30;;;;;;;37.92;11.68;;;;;;;23.28;49.94;100494.50;5113605;28;20031;-78
2023/10/22 02:01:55;;;;;;;35.78;11.57;;;;;;;23.25;50.03;100490.28;5113645;28;20089;-78
2023/10/22 02:04:22;;;;;;;33.17;10.35;;;;;;;23.19;50.59;100484.78;5113667;28;20106;-78
2023/10/22 02:06:47;;;;;;;31.67;9.60;;;;;;;23.13;50.37;100485.59;5113644;28;20113;-78
2023/10/22 02:09:15;;;;;;;23.08;11.27;;;;;;;23.19;50.52;100503.97;5113494;28;20460;-79
2023/10/22 02:11:40;;;;;;;32.92;10.52;;;;;;;23.15;50.43;100489.84;5113232;28;20051;-78
2023/10/22 02:14:06;;;;;;;41.55;11.43;;;;;;;23.14;50.54;100492.78;5113137;28;20086;-78
2023/10/22 02:16:31;;;;;;;30.90;10.13;;;;;;;22.72;50.54;100428.16;5113512;28;20505;-78
2023/10/22 02:18:57;;;;;;;27.55;10.93;;;;;;;23.13;50.64;100491.09;5113389;28;20024;-78
2023/10/22 02:21:26;;;;;;;29.95;9.77;;;;;;;23.15;50.56;100494.47;5113043;28;20031;-78
2023/10/22 02:23:52;;;;;;;29.85;9.95;;;;;;;23.09;50.37;100495.31;5112891;28;20041;-79
2023/10/22 02:26:18;;;;;;;42.85;12.50;;;;;;;23.08;50.60;100502.72;5112774;28;20063;-78
2023/10/22 02:28:44;;;;;;;41.33;10.73;;;;;;;23.05;50.75;100496.78;5113317;28;20035;-78
2023/10/22 02:31:10;;;;;;;28.73;11.05;;;;;;;23.05;50.20;100497.66;5112862;28;20103;-78
2023/10/22 02:33:38;;;;;;;26.73;10.48;;;;;;;23.05;50.38;100497.66;5113261;28;20023;-77
2023/10/22 02:36:04;;;;;;;30.90;11.50;;;;;;;23.02;49.80;100484.34;5112919;28;20027;-77
2023/10/22 02:38:29;;;;;;;40.85;10.35;;;;;;;23.05;49.71;100486.66;5112462;28;20026;-77
2023/10/22 02:40:55;;;;;;;28.98;10.40;;;;;;;23.06;50.11;100496.56;5111302;28;20118;-78
2023/10/22 02:43:20;;;;;;;33.85;10.05;;;;;;;22.89;49.94;100472.50;5112705;28;20407;-78
2023/10/22 02:45:53;;;;;;;35.63;11.68;;;;;;;23.01;49.97;100496.38;5113259;28;20026;-79
2023/10/22 02:48:19;;;;;;;27.13;10.73;;;;;;;22.99;49.77;100495.75;5112896;28;20036;-78
2023/10/22 02:50:45;;;;;;;32.80;10.70;;;;;;;22.81;49.41;100475.44;5113150;28;20399;-78
2023/10/22 02:53:10;;;;;;;39.60;11.02;;;;;;;22.95;49.67;100496.34;5112891;28;20023;-78
2023/10/22 02:55:36;;;;;;;38.05;12.00;;;;;;;22.77;49.46;100470.38;5112781;28;20030;-78
2023/10/22 02:58:01;;;;;;;38.72;9.98;;;;;;;22.88;49.81;100490.00;5112768;28;20019;-77
2023/10/22 03:00:27;;;;;;;26.70;9.80;;;;;;;22.85;49.68;100498.63;5112563;28;20016;-78
2023/10/22 03:02:53;;;;;;;32.80;9.80;;;;;;;22.80;49.81;100501.16;5112367;28;20453;-78
2023/10/22 03:05:18;;;;;;;29.50;10.02;;;;;;;22.63;50.76;100501.50;5112608;28;20058;-78
2023/10/22 03:07:44;;;;;;;38.72;12.15;;;;;;;22.45;52.55;100503.97;5112494;28;20072;-79
2023/10/22 03:10:09;;;;;;;35.42;13.25;;;;;;;22.13;53.90;100497.31;5112202;28;20085;-79
2023/10/22 03:12:35;;;;;;;55.47;14.13;;;;;;;21.91;55.23;100524.97;5110058;28;20503;-78
2023/10/22 03:15:01;;;;;;;49.25;13.63;;;;;;;21.59;56.12;100501.75;5111922;28;20124;-78
2023/10/22 03:17:26;;;;;;;35.97;13.90;;;;;;;21.56;57.02;100526.78;5112218;28;20062;-79
2023/10/22 03:19:52;;;;;;;45.63;15.18;;;;;;;21.41;57.63;100532.34;5111932;28;20479;-78
2023/10/22 03:22:18;;;;;;;51.63;15.48;;;;;;;21.28;58.40;100534.97;5112070;28;20024;-79
2023/10/22 03:24:48;;;;;;;61.00;16.58;;;;;;;21.18;58.53;100528.97;5111709;28;20075;-79
2023/10/22 03:27:14;;;;;;;63.92;15.90;;;;;;;20.96;59.03;100505.38;5092674;28;20032;-77
2023/10/22 03:29:39;;;;;;;61.90;16.80;;;;;;;20.99;59.34;100533.16;5111932;28;20422;-78
2023/10/22 03:32:05;;;;;;;51.85;15.65;;;;;;;21.00;59.67;100536.75;5111863;28;20035;-79
2023/10/22 03:34:31;;;;;;;54.08;14.95;;;;;;;20.78;59.95;100519.47;5110629;28;20027;-78
2023/10/22 03:36:56;;;;;;;54.85;15.93;;;;;;;20.88;60.09;100541.91;5111660;28;20034;-78
2023/10/22 03:39:22;;;;;;;51.92;14.98;;;;;;;20.81;60.03;100526.44;5111597;28;20479;-78
2023/10/22 03:41:47;;;;;;;42.35;13.48;;;;;;;20.92;59.75;100540.44;5111778;28;20501;-79
2023/10/22 03:44:13;;;;;;;44.00;14.57;;;;;;;21.00;58.79;100534.03;5111792;28;20072;-77
2023/10/22 03:46:38;;;;;;;43.80;13.02;;;;;;;20.98;58.19;100530.63;5111590;28;20051;-78
2023/10/22 03:49:04;;;;;;;40.47;12.63;;;;;;;21.06;57.80;100530.50;5110931;28;20384;-78
2023/10/22 03:51:29;;;;;;;61.53;13.65;;;;;;;21.08;57.99;100531.16;5111137;28;20030;-80
2023/10/22 03:53:56;;;;;;;43.35;13.65;;;;;;;21.01;58.00;100520.13;5111232;28;20027;-78
2023/10/22 03:56:22;;;;;;;45.20;14.80;;;;;;;21.05;57.97;100526.91;5111659;28;20031;-78
2023/10/22 03:58:48;;;;;;;47.58;15.30;;;;;;;20.98;58.25;100519.69;5110952;28;20063;-78
2023/10/22 04:01:13;;;;;;;66.43;17.17;;;;;;;21.11;58.40;100544.47;5111292;27;20077;-78
2023/10/22 04:03:39;;;;;;;51.70;14.95;;;;;;;21.05;58.44;100542.47;5111702;28;20027;-77
2023/10/22 04:06:04;;;;;;;61.38;16.50;;;;;;;20.98;58.72;100544.28;5111293;28;20073;-77
2023/10/22 04:08:30;;;;;;;55.50;15.20;;;;;;;20.98;58.67;100545.13;5110983;28;20028;-78
2023/10/22 04:10:55;;;;;;;65.80;16.50;;;;;;;20.97;58.44;100537.16;5111400;27;20038;-77
2023/10/22 04:13:22;;;;;;;75.88;17.20;;;;;;;21.01;58.45;100544.75;5111493;28;20024;-79
2023/10/22 04:15:48;;;;;;;63.90;15.27;;;;;;;21.03;58.40;100547.31;5111059;28;20047;-78
2023/10/22 04:18:15;;;;;;;54.33;15.82;;;;;;;20.99;57.99;100548.72;5111567;28;20477;-79
2023/10/22 04:20:41;;;;;;;38.33;12.25;;;;;;;20.98;58.02;100547.03;5109610;28;20110;-78
2023/10/22 04:23:08;;;;;;;40.70;12.95;;;;;;;20.96;57.89;100546.38;5111047;28;20467;-79
2023/10/22 04:25:40;;;;;;;53.25;12.48;;;;;;;20.98;57.59;100544.28;5110609;28;20471;-79
2023/10/22 04:28:07;;;;;;;44.28;14.65;;;;;;;20.99;57.27;100544.09;5110747;28;20032;-78
2023/10/22 04:30:37;;;;;;;48.47;11.75;;;;;;;20.98;57.43;100558.81;5110828;28;20028;-79
2023/10/22 04:33:04;;;;;;;33.08;11.10;;;;;;;21.00;57.01;100555.91;5110939;28;20034;-78
2023/10/22 04:35:31;;;;;;;51.83;11.63;;;;;;;20.99;56.83;100551.47;5110351;28;20538;-78
2023/10/22 04:37:56;;;;;;;36.92;11.23;;;;;;;21.03;56.62;100550.03;5110745;28;20475;-79
2023/10/22 04:40:22;;;;;;;43.25;12.70;;;;;;;20.99;56.52;100554.19;5110564;28;20084;-78
2023/10/22 04:42:47;;;;;;;48.03;11.80;;;;;;;21.05;56.21;100558.88;5110704;28;20028;-78
2023/10/22 04:45:13;;;;;;;47.78;11.20;;;;;;;20.99;55.91;100551.47;5109339;28;20026;-77
2023/10/22 04:47:38;;;;;;;41.95;11.57;;;;;;;21.04;55.74;100558.03;5110544;28;20028;-77
2023/10/22 04:50:05;;;;;;;46.20;12.90;;;;;;;21.01;55.61;100541.16;5110464;28;20028;-78
2023/10/22 04:52:31;;;;;;;35.60;10.85;;;;;;;21.13;55.28;100561.53;5110397;28;20031;-77
2023/10/22 04:54:58;;;;;;;46.08;10.95;;;;;;;21.20;55.25;100562.44;5110335;28;20031;-79
2023/10/22 04:57:24;;;;;;;25.88;9.32;;;;;;;21.13;55.41;100561.53;5110056;28;20495;-79
2023/10/22 04:59:49;;;;;;;21.83;9.02;;;;;;;21.12;54.96;100548.91;5110259;28;20039;-77
2023/10/22 05:02:15;;;;;;;35.60;10.00;;;;;;;21.29;54.67;100568.63;5109765;28;20027;-78
2023/10/22 05:04:40;;;;;;;32.35;9.25;;;;;;;21.32;54.59;100577.28;5110073;28;20023;-78
2023/10/22 05:07:06;;;;;;;39.15;10.43;;;;;;;21.38;54.04;100584.72;5110027;28;20483;-79
2023/10/22 05:09:33;;;;;;;37.13;11.88;;;;;;;21.35;53.55;100567.84;5110571;28;20027;-77
2023/10/22 05:11:58;;;;;;;45.88;10.95;;;;;;;21.52;53.63;100583.81;5110959;28;20042;-78
2023/10/22 05:14:23;;;;;;;49.38;10.57;;;;;;;21.55;53.42;100588.91;5110395;28;20599;-79
2023/10/22 05:16:52;;;;;;;34.92;9.90;;;;;;;21.61;53.26;100588.13;5110539;28;20059;-80
2023/10/22 05:19:17;;;;;;;40.05;11.88;;;;;;;21.63;52.93;100586.00;5110303;28;20380;-79
2023/10/22 05:21:43;;;;;;;35.95;10.45;;;;;;;21.75;52.57;100596.41;5112020;28;20030;-78
2023/10/22 05:24:09;;;;;;;42.72;10.02;;;;;;;21.81;52.53;100603.84;5114576;28;20032;-78
2023/10/22 05:26:35;;;;;;;39.42;10.20;;;;;;;21.83;52.33;100597.16;5117271;28;20107;-78
2023/10/22 05:29:00;;;;;;;33.22;9.55;;;;;;;21.90;52.24;100613.63;5117444;28;20069;-78
2023/10/22 05:31:26;;;;;;;37.10;10.77;;;;;;;22.01;52.17;100615.84;5115321;28;20020;-80
2023/10/22 05:33:51;;;;;;;56.78;13.05;;;;;;;22.06;51.94;100618.81;5117279;28;20031;-78
2023/10/22 05:36:19;;;;;;;44.67;12.10;;;;;;;22.12;51.95;100618.03;5115184;28;20079;-80
2023/10/22 05:38:45;;;;;;;30.17;9.88;;;;;;;22.18;51.88;100617.22;5111521;28;20024;-78
2023/10/22 05:41:18;;;;;;;36.72;10.35;;;;;;;22.25;51.62;100620.88;5110044;28;20019;-78
2023/10/22 05:43:43;;;;;;;34.55;11.20;;;;;;;22.33;51.43;100630.81;5109764;28;20031;-79
2023/10/22 05:46:08;;;;;;;27.20;10.63;;;;;;;22.39;51.12;100625.38;5109777;28;20027;-78
2023/10/22 05:48:34;;;;;;;34.05;9.18;;;;;;;22.42;50.96;100619.50;5109515;28;20547;-78
2023/10/22 05:51:00;;;;;;;33.88;9.18;;;;;;;22.50;50.55;100624.84;5109522;28;20034;-78
2023/10/22 05:53:26;;;;;;;34.90;10.13;;;;;;;22.62;50.40;100625.09;5109613;28;20023;-78
2023/10/22 05:55:58;;;;;;;24.83;9.27;;;;;;;22.72;50.11;100634.66;5109681;28;20077;-77
2023/10/22 05:58:26;;;;;;;33.95;8.68;;;;;;;22.77;50.00;100628.56;5109690;28;20452;-78
2023/10/22 06:00:53;;;;;;;38.70;9.18;;;;;;;22.85;49.82;100635.78;5109385;28;20020;-77
2023/10/22 06:03:19;;;;;;;30.88;9.57;;;;;;;22.85;49.63;100620.16;5109459;28;20116;-78
2023/10/22 06:05:45;;;;;;;32.28;9.32;;;;;;;22.94;49.67;100623.56;5109462;28;20061;-79
2023/10/22 06:08:11;;;;;;;32.28;9.88;;;;;;;22.92;49.44;100612.81;5109591;28;20034;-76
2023/10/22 06:10:44;;;;;;;32.35;9.10;;;;;;;23.07;49.18;100632.72;5109651;28;20032;-76
2023/10/22 06:13:11;;;;;;;40.25;9.02;;;;;;;23.18;49.33;100639.47;5110623;28;20028;-78
2023/10/22 06:15:42;;;;;;;40.40;8.48;;;;;;;23.22;49.23;100635.28;5112932;28;20043;-78
2023/10/22 06:18:08;;;;;;;31.95;8.32;;;;;;;23.15;48.90;100620.69;5113243;28;20051;-76
2023/10/22 06:20:34;;;;;;;40.88;8.13;;;;;;;23.22;48.76;100632.53;5113088;28;20479;-76
2023/10/22 06:23:00;;;;;;;31.88;7.00;;;;;;;23.37;48.63;100640.59;5113022;28;20030;-76
2023/10/22 06:25:26;;;;;;;27.02;8.10;;;;;;;23.31;48.37;100612.09;5112641;28;20055;-78
2023/10/22 06:27:55;;;;;;;28.33;6.93;;;;;;;23.45;48.25;100630.31;5111000;28;20058;-83
2023/10/22 06:30:25;;;;;;;22.25;7.65;;;;;;;23.53;47.84;100630.13;5113957;28;20039;-85
2023/10/22 06:32:52;;;;;;;26.67;6.85;;;;;;;23.58;47.63;100633.06;5113961;28;20119;-82
2023/10/22 06:35:19;;;;;;;36.28;8.32;;;;;;;23.65;47.67;100638.56;5114596;28;20028;-83
2023/10/22 06:37:47;;;;;;;33.20;8.35;;;;;;;23.44;47.54;100586.59;5125515;28;20066;-83
2023/10/22 06:40:13;;;;;;;36.97;9.73;;;;;;;23.66;47.42;100610.91;5114112;28;20058;-83
2023/10/22 06:42:40;;;;;;;49.67;10.77;;;;;;;23.77;47.06;100626.75;5111795;28;20035;-83
2023/10/22 06:45:07;;;;;;;29.15;7.88;;;;;;;23.90;46.64;100641.56;5114434;28;20424;-79
2023/10/22 06:47:38;;;;;;;32.08;9.35;;;;;;;23.95;46.79;100648.09;5114008;28;20051;-79
2023/10/22 06:50:05;;;;;;;24.95;7.45;;;;;;;24.03;46.27;100647.06;5113991;28;20483;-83
2023/10/22 06:52:30;;;;;;;27.77;7.82;;;;;;;24.04;46.21;100632.25;5113866;28;20023;-82
2023/10/22 06:54:55;;;;;;;31.63;8.20;;;;;;;24.18;45.81;100639.47;5115559;28;20053;-81
2023/10/22 06:57:21;;;;;;;23.02;6.97;;;;;;;24.27;45.43;100636.28;5114316;28;20023;-81
2023/10/22 06:59:54;;;;;;;22.23;6.72;;;;;;;24.34;45.31;100625.28;5111718;28;20479;-81
2023/10/22 07:02:20;;;;;;;29.50;7.72;;;;;;;24.44;44.70;100620.19;5114132;28;20088;-82
2023/10/22 07:04:47;;;;;;;42.33;9.05;;;;;;;24.38;44.52;100596.28;5113999;28;20023;-80
2023/10/22 07:07:13;;;;;;;37.67;10.18;;;;;;;24.62;44.65;100627.72;5113753;28;20092;-82
2023/10/22 07:09:39;;;;;;;26.77;7.22;;;;;;;24.59;43.56;100631.78;5114060;28;20031;-82
2023/10/22 07:12:05;;;;;;;24.13;8.40;;;;;;;24.70;43.90;100633.88;5111480;28;20043;-81
2023/10/22 07:14:30;;;;;;;37.25;9.15;;;;;;;24.84;43.47;100635.53;5114671;28;20126;-83
2023/10/22 07:16:56;;;;;;;31.15;7.28;;;;;;;24.93;43.45;100627.88;5113660;28;20070;-81
2023/10/22 07:19:22;;;;;;;42.15;20.48;;;;;;;25.06;43.27;100632.47;5113714;27;20028;-80
2023/10/22 07:21:47;;;;;;;35.05;8.70;;;;;;;25.14;42.50;100632.22;5113290;28;20027;-79
2023/10/22 07:24:13;;;;;;;25.58;8.52;;;;;;;25.28;42.40;100631.94;5113187;28;20384;-82
2023/10/22 07:26:38;;;;;;;31.17;8.48;;;;;;;25.36;42.00;100620.66;5112987;27;20023;-78
2023/10/22 07:29:04;;;;;;;25.38;7.45;;;;;;;25.53;41.71;100621.03;5113501;28;20031;-83
2023/10/22 07:31:29;;;;;;;26.98;7.65;;;;;;;25.67;41.63;100619.84;5113679;28;20024;-81
2023/10/22 07:33:55;;;;;;;40.35;7.85;;;;;;;25.80;40.91;100618.91;5113181;28;20035;-81
2023/10/22 07:36:20;;;;;;;30.98;6.82;;;;;;;25.72;41.00;100581.44;5113437;28;20081;-81
2023/10/22 07:38:51;;;;;;;21.42;6.72;;;;;;;26.03;40.31;100623.78;5113600;28;20036;-80
2023/10/22 07:41:17;;;;;;;32.00;6.93;;;;;;;26.17;40.44;100619.91;5113814;28;20039;-84
2023/10/22 07:43:42;;;;;;;19.35;7.15;;;;;;;26.25;39.98;100617.69;5113292;28;20031;-85
2023/10/22 07:46:10;;;;;;;32.55;8.60;;;;;;;26.38;39.85;100627.75;5113517;28;20027;-81
2023/10/22 07:48:35;;;;;;;31.60;8.02;;;;;;;26.49;39.63;100629.75;5112873;28;20051;-81
2023/10/22 07:51:15;;;;;;;33.38;8.15;;;;;;;26.62;39.67;100629.59;5113641;28;20051;-81
2023/10/22 07:53:40;;;;;;;19.80;8.13;;;;;;;26.72;39.20;100624.41;5122093;28;20034;-80
2023/10/22 07:56:06;;;;;;;26.80;7.60;;;;;;;26.80;38.99;100629.63;5114833;28;20032;-80
2023/10/22 07:58:32;;;;;;;18.48;6.60;;;;;;;26.89;38.79;100632.91;5113680;28;20096;-80
2023/10/22 08:00:59;;;;;;;29.58;6.68;;;;;;;27.08;38.76;100628.22;5112505;28;20483;-79
2023/10/22 08:03:28;;;;;;;21.40;6.80;;;;;;;27.24;38.63;100622.06;5113105;28;20390;-80
2023/10/22 08:05:53;;;;;;;34.25;7.22;;;;;;;27.22;37.96;100607.63;5111645;27;20142;-79
2023/10/22 08:08:18;;;;;;;29.60;8.70;;;;;;;27.39;38.00;100630.78;5113013;28;20460;-78
2023/10/22 08:10:44;;;;;;;34.33;7.05;;;;;;;27.32;37.54;100610.69;5112825;28;20050;-78
2023/10/22 08:13:09;;;;;;;43.38;8.98;;;;;;;27.41;37.98;100625.84;5112489;28;20066;-79
2023/10/22 08:15:35;;;;;;;38.00;8.73;;;;;;;27.39;38.06;100625.25;5112259;28;20096;-80
2023/10/22 08:18:00;;;;;;;29.90;6.97;;;;;;;27.39;38.03;100622.47;5112823;28;20033;-79
2023/10/22 08:20:26;;;;;;;32.97;8.85;;;;;;;27.23;38.00;100606.56;5112536;28;20111;-80
2023/10/22 08:22:52;;;;;;;37.65;7.68;;;;;;;27.21;38.09;100614.25;5111918;28;20135;-80
2023/10/22 08:25:18;;;;;;;24.38;6.55;;;;;;;27.22;38.24;100613.16;5112405;28;20103;-80
2023/10/22 08:27:43;;;;;;;31.48;7.25;;;;;;;27.42;38.44;100630.31;5111164;28;20023;-78
2023/10/22 08:30:09;;;;;;;24.55;7.63;;;;;;;27.33;37.95;100593.88;5112410;28;20019;-80
2023/10/22 08:32:35;;;;;;;28.50;7.13;;;;;;;27.54;37.69;100617.41;5112143;28;20082;-81
2023/10/22 08:35:02;;;;;;;44.33;9.15;;;;;;;27.55;37.72;100613.56;5112001;28;20050;-79
2023/10/22 08:37:27;;;;;;;34.20;6.80;;;;;;;27.61;37.86;100620.06;5111709;28;20111;-80
2023/10/22 08:39:54;;;;;;;38.42;7.70;;;;;;;27.51;36.90;100604.91;5111465;28;20107;-80
2023/10/22 08:42:23;;;;;;;21.83;6.82;;;;;;;27.49;36.99;100597.94;5109033;28;20063;-81
2023/10/22 08:44:49;;;;;;;32.75;7.70;;;;;;;27.57;37.65;100611.41;5110750;28;20503;-80
2023/10/22 08:47:16;;;;;;;27.13;7.72;;;;;;;27.72;37.22;100619.25;5110003;28;20031;-79
2023/10/22 08:49:42;;;;;;;36.05;7.25;;;;;;;27.78;37.13;100624.66;5110750;28;20023;-82
2023/10/22 08:52:08;;;;;;;28.17;7.82;;;;;;;27.78;36.67;100613.59;5109524;28;20066;-80
2023/10/22 08:54:37;;;;;;;35.42;9.05;;;;;;;27.88;36.72;100624.94;5110891;28;20023;-78
2023/10/22 08:57:03;;;;;;;23.98;7.63;;;;;;;27.88;36.82;100597.28;5110789;28;20084;-83
2023/10/22 08:59:36;;;;;;;28.40;7.50;;;;;;;28.12;36.83;100612.00;5111121;28;20023;-80
2023/10/22 09:02:06;;;;;;;26.40;7.63;;;;;;;28.23;36.69;100607.53;5110403;28;20501;-80
2023/10/22 09:04:32;;;;;;;27.75;7.45;;;;;;;28.20;35.83;100583.13;5110918;28;20094;-79
2023/10/22 09:06:58;;;;;;;20.55;7.30;;;;;;;28.45;35.61;100597.53;5110879;28;20067;-79
2023/10/22 09:09:33;;;;;;;24.15;5.95;;;;;;;28.50;35.28;100592.97;5110446;28;20059;-79
2023/10/22 09:11:59;;;;;;;15.80;5.15;;;;;;;28.58;34.47;100589.00;5123232;28;20038;-79
2023/10/22 09:14:25;;;;;;;29.17;6.15;;;;;;;28.64;34.63;100585.25;5109775;28;20052;-79
2023/10/22 09:16:51;;;;;;;23.10;6.93;;;;;;;28.77;34.76;100590.56;5109615;28;20484;-78
2023/10/22 09:19:36;;;;;;;31.45;7.10;;;;;;;28.88;34.51;100580.50;5110722;28;20092;-79
2023/10/22 09:22:05;;;;;;;46.08;8.23;;;;;;;28.97;34.68;100570.72;5109715;28;20031;-80
2023/10/22 09:24:33;;;;;;;25.85;7.00;;;;;;;29.07;34.62;100557.09;5110205;28;20038;-78
2023/10/22 09:26:59;;;;;;;37.63;7.78;;;;;;;29.26;34.19;100557.75;5110478;28;20032;-79
2023/10/22 09:29:26;;;;;;;19.95;7.28;;;;;;;29.31;34.02;100555.06;5110355;28;20760;-78
2023/10/22 09:31:53;;;;;;;30.80;6.78;;;;;;;29.35;33.64;100547.94;5110215;28;20023;-79
2023/10/22 09:34:33;;;;;;;25.80;6.72;;;;;;;29.39;33.71;100525.00;5109727;28;20414;-76
2023/10/22 09:36:59;;;;;;;36.03;7.45;;;;;;;29.47;35.03;100535.72;5109522;28;20020;-76
2023/10/22 09:39:39;;;;;;;31.10;7.30;;;;;;;29.56;36.96;100533.34;5109735;28;20490;-78
2023/10/22 09:42:08;;;;;;;36.47;8.00;;;;;;;29.33;37.95;100522.41;5110346;28;20024;-79
2023/10/22 09:44:34;;;;;;;35.60;6.78;;;;;;;29.23;37.66;100533.28;5110427;28;20561;-79
2023/10/22 09:47:01;;;;;;;30.95;9.02;;;;;;;29.23;38.15;100536.06;5110063;28;20487;-78
2023/10/22 09:49:30;;;;;;;23.98;7.13;;;;;;;29.05;37.64;100507.47;5113611;28;20038;-79
2023/10/22 09:52:01;;;;;;;32.53;7.88;;;;;;;28.99;38.19;100527.03;5113522;28;20522;-79
2023/10/22 09:54:37;;;;;;;32.58;7.65;;;;;;;29.04;38.07;100527.13;5114212;28;20027;-79
2023/10/22 09:57:08;;;;;;;44.85;8.68;;;;;;;29.15;37.15;100537.28;5113893;28;20521;-79
2023/10/22 09:59:35;;;;;;;31.73;6.63;;;;;;;29.12;36.61;100538.63;5113868;28;20032;-79
2023/10/22 10:02:01;;;;;;;31.25;7.25;;;;;;;28.77;37.62;100520.50;5094158;28;20333;-78
2023/10/22 10:04:26;;;;;;;22.35;6.28;;;;;;;28.76;37.89;100538.19;5113979;28;20030;-78
2023/10/22 10:06:56;;;;;;;31.02;6.88;;;;;;;28.71;39.24;100538.94;5114545;27;20036;-78
2023/10/22 10:09:24;;;;;;;23.70;6.47;;;;;;;28.55;40.25;100542.44;5113736;28;20027;-79
2023/10/22 10:11:51;;;;;;;27.77;8.32;;;;;;;28.53;42.47;100555.69;5114206;28;20027;-78
2023/10/22 10:14:49;;;;;;;26.25;7.00;;;;;;;28.55;42.84;100543.28;5113633;28;20047;-78
2023/10/22 10:17:16;;;;;;;60.42;9.63;;;;;;;28.39;43.09;100498.91;5050516;28;20056;-78
2023/10/22 10:19:42;;;;;;;32.58;6.70;;;;;;;28.77;43.38;100534.34;5050212;28;20063;-78
2023/10/22 10:22:08;;;;;;;55.80;9.70;;;;;;;28.79;43.40;100526.63;5049982;28;20025;-80
2023/10/22 10:24:34;;;;;;;36.35;8.35;;;;;;;28.86;43.20;100519.00;5049930;28;20033;-78
2023/10/22 10:27:00;;;;;;;26.02;7.18;;;;;;;28.99;43.13;100505.69;5049844;28;20515;-78
2023/10/22 10:29:28;;;;;;;34.60;7.85;;;;;;;28.91;43.08;100497.78;5059494;28;20037;-78
2023/10/22 10:31:55;;;;;;;40.55;7.47;;;;;;;28.93;42.77;100498.38;5050438;28;20106;-78
2023/10/22 10:34:33;;;;;;;38.03;7.05;;;;;;;28.91;42.92;100506.09;5050015;28;20167;-78
2023/10/22 10:37:15;;;;;;;28.05;6.45;;;;;;;28.87;42.85;100504.06;5050206;28;20067;-78
2023/10/22 10:39:42;;;;;;;39.15;7.75;;;;;;;28.75;42.65;100492.19;5049843;28;20041;-78
2023/10/22 10:42:09;;;;;;;25.60;6.68;;;;;;;28.67;42.94;100501.75;5050161;28;20132;-79
2023/10/22 10:44:57;;;;;;;26.55;7.28;;;;;;;28.53;42.91;100494.78;5049918;28;20032;-78
2023/10/22 10:47:27;;;;;;;21.77;6.85;;;;;;;28.22;43.13;100485.00;5047675;28;20033;-78
2023/10/22 10:50:03;;;;;;;24.30;6.35;;;;;;;28.48;43.53;100497.44;5050156;28;20068;-78
2023/10/22 10:52:31;;;;;;;25.40;6.68;;;;;;;28.31;43.60;100496.53;5072187;28;20059;-78
2023/10/22 10:55:01;;;;;;;17.58;6.25;;;;;;;28.35;43.70;100486.63;5112918;28;20042;-77
2023/10/22 10:57:40;;;;;;;24.80;7.25;;;;;;;28.35;44.31;100492.16;5112857;28;20020;-77
2023/10/22 11:00:09;;;;;;;26.90;7.00;;;;;;;28.34;44.16;100483.06;5109834;28;20701;-77
2023/10/22 11:02:48;;;;;;;26.05;7.20;;;;;;;28.40;44.22;100475.69;5112694;28;20081;-78
2023/10/22 11:05:15;;;;;;;26.25;6.25;;;;;;;28.37;44.00;100456.81;5112487;28;20032;-77
2023/10/22 11:07:43;;;;;;;36.35;8.18;;;;;;;28.37;44.84;100478.97;5112594;28;20034;-78
2023/10/22 11:10:16;;;;;;;31.17;8.77;;;;;;;28.41;44.60;100469.91;5112750;28;20055;-78
2023/10/22 11:12:43;;;;;;;29.55;7.22;;;;;;;28.19;45.71;100465.28;5112514;27;20414;-79